Time;durP1;ratioP1;P1;durP2;ratioP2;P2;SDS_P1;SDS_P2;PMS_P1;PMS_P2;Temp;Humidity;BMP_temperature;BMP_pressure;BME280_temperature;BME280_humidity;BME280_pressure;Samples;Min_cycle;Max_cycle;Signal;HPM_P1;HPM_P2
2023/08/28 00:00:28;;;;;;;1.4;1.1;;;;;;;15.29;100;933.7781;;;;
2023/08/28 00:02:53;;;;;;;1.2;1;;;;;;;15.36;100;933.7601;;;;
2023/08/28 00:05:18;;;;;;;1.1;0.9;;;;;;;15.37;100;933.7192;;;;
2023/08/28 00:07:43;;;;;;;1.1;1;;;;;;;15.27;100;933.6349;;;;
2023/08/28 00:10:16;;;;;;;0.7;0.7;;;;;;;15;100;933.6986;;;;
2023/08/28 00:12:43;;;;;;;1.1;0.8;;;;;;;14.95;100;933.7001;;;;
2023/08/28 00:15:08;;;;;;;1.2;1.1;;;;;;;14.91;100;933.6639;;;;
2023/08/28 00:17:38;;;;;;;1.1;1;;;;;;;14.99;100;933.625;;;;
2023/08/28 00:20:03;;;;;;;0.7;0.7;;;;;;;14.96;100;933.6544;;;;
2023/08/28 00:22:28;;;;;;;1.1;1;;;;;;;15.01;100;933.688;;;;
2023/08/28 00:24:55;;;;;;;1.2;0.9;;;;;;;15.15;100;933.813;;;;
2023/08/28 00:27:19;;;;;;;0.8;0.8;;;;;;;15.24;100;933.8223;;;;
2023/08/28 00:29:46;;;;;;;1.8;0.9;;;;;;;15.24;100;933.7059;;;;
2023/08/28 00:32:11;;;;;;;0.9;0.9;;;;;;;15.31;100;933.6439;;;;
2023/08/28 00:34:36;;;;;;;1.4;0.8;;;;;;;15.3;100;933.7065;;;;
2023/08/28 00:37:04;;;;;;;0.8;0.8;;;;;;;15.23;100;933.7455;;;;
2023/08/28 00:39:29;;;;;;;1.2;0.9;;;;;;;15.33;100;933.7679;;;;
2023/08/28 00:41:56;;;;;;;1.5;0.8;;;;;;;15.28;100;933.7687;;;;
2023/08/28 00:44:21;;;;;;;2.6;1;;;;;;;15.34;100;933.7598;;;;
2023/08/28 00:46:46;;;;;;;1.3;0.9;;;;;;;15.33;100;933.6981;;;;
2023/08/28 00:49:12;;;;;;;1.1;0.7;;;;;;;15.35;100;933.6497;;;;
2023/08/28 00:51:39;;;;;;;0.6;0.6;;;;;;;15.45;100;933.666;;;;
2023/08/28 00:54:05;;;;;;;1.3;0.8;;;;;;;15.42;100;933.6325;;;;
2023/08/28 00:56:31;;;;;;;1;0.6;;;;;;;15.47;99.53223;933.6135;;;;
2023/08/28 00:58:56;;;;;;;1.4;0.8;;;;;;;15.51;99.22852;933.5975;;;;
2023/08/28 01:01:23;;;;;;;0.9;0.9;;;;;;;15.53;98.75879;933.5843;;;;
2023/08/28 01:03:48;;;;;;;1.4;1;;;;;;;15.52;98.35449;933.5531;;;;
2023/08/28 01:06:15;;;;;;;1.1;0.9;;;;;;;15.47;98.7002;933.5251;;;;
2023/08/28 01:08:41;;;;;;;1.1;0.9;;;;;;;15.49;98.64648;933.3788;;;;
2023/08/28 01:11:06;;;;;;;1;0.9;;;;;;;15.34;99.2959;933.288;;;;
2023/08/28 01:13:31;;;;;;;1;0.8;;;;;;;15.13;100;933.1852;;;;
2023/08/28 01:15:56;;;;;;;0.9;0.8;;;;;;;15.05;100;933.2596;;;;
2023/08/28 01:18:21;;;;;;;1.1;1;;;;;;;15.04;100;933.3126;;;;
2023/08/28 01:20:47;;;;;;;1.6;0.9;;;;;;;15.05;100;933.371;;;;
2023/08/28 01:23:13;;;;;;;1;0.7;;;;;;;15.01;100;933.4075;;;;
2023/08/28 01:25:38;;;;;;;0.7;0.7;;;;;;;15.06;100;933.3557;;;;
2023/08/28 01:28:08;;;;;;;0.9;0.9;;;;;;;15.11;100;933.2449;;;;
2023/08/28 01:30:33;;;;;;;1.3;0.9;;;;;;;15.29;100;933.1685;;;;
2023/08/28 01:33:01;;;;;;;1.2;0.9;;;;;;;15.33;99.62402;933.1647;;;;
2023/08/28 01:35:26;;;;;;;1.1;1;;;;;;;15.22;99.87891;933.1272;;;;
2023/08/28 01:37:51;;;;;;;0.9;0.9;;;;;;;15.21;100;933.0862;;;;
2023/08/28 01:40:16;;;;;;;1.6;1.2;;;;;;;15.15;100;933.0575;;;;
2023/08/28 01:42:42;;;;;;;4;1.1;;;;;;;15.19;100;933.0488;;;;
2023/08/28 01:45:07;;;;;;;1.3;0.9;;;;;;;15.1;100;932.9275;;;;
2023/08/28 01:47:32;;;;;;;1.3;0.9;;;;;;;15.08;100;932.8278;;;;
2023/08/28 01:49:58;;;;;;;1.4;1;;;;;;;15.19;100;932.6725;;;;
2023/08/28 01:52:23;;;;;;;1;0.9;;;;;;;15.14;100;932.7136;;;;
2023/08/28 01:54:48;;;;;;;0.9;0.9;;;;;;;15.25;100;932.5724;;;;
2023/08/28 01:57:14;;;;;;;2.6;1;;;;;;;15.23;99.69629;932.6489;;;;
2023/08/28 01:59:39;;;;;;;1.7;1;;;;;;;15.2;100;932.6387;;;;
2023/08/28 02:02:04;;;;;;;1.2;0.9;;;;;;;15.18;100;932.5765;;;;
2023/08/28 02:04:29;;;;;;;1.6;1.2;;;;;;;15.15;100;932.5066;;;;
2023/08/28 02:06:56;;;;;;;1.6;0.9;;;;;;;15.05;100;932.416;;;;
2023/08/28 02:09:21;;;;;;;0.8;0.8;;;;;;;14.9;100;932.3478;;;;
2023/08/28 02:11:49;;;;;;;1.2;0.9;;;;;;;14.92;100;932.3058;;;;
2023/08/28 02:14:13;;;;;;;1.4;1.2;;;;;;;14.7;100;932.4028;;;;
2023/08/28 02:16:39;;;;;;;1.8;1.1;;;;;;;14.71;100;932.4252;;;;
2023/08/28 02:19:03;;;;;;;1.7;1.2;;;;;;;14.72;100;932.4689;;;;
2023/08/28 02:21:30;;;;;;;1.3;1.2;;;;;;;14.65;100;932.4581;;;;
2023/08/28 02:23:55;;;;;;;1.5;1.1;;;;;;;14.75;100;932.4926;;;;
2023/08/28 02:26:20;;;;;;;1.1;1;;;;;;;14.75;100;932.495;;;;
2023/08/28 02:28:45;;;;;;;1.3;1;;;;;;;14.73;100;932.5891;;;;
2023/08/28 02:31:10;;;;;;;1.1;1;;;;;;;14.75;100;932.6287;;;;
2023/08/28 02:34:59;;;;;;;1.2;1.1;;;;;;;14.8;100;932.6594;;;;
2023/08/28 02:37:24;;;;;;;1.3;1.2;;;;;;;14.71;100;932.6744;;;;
2023/08/28 02:39:53;;;;;;;2.1;1.3;;;;;;;14.59;100;932.5212;;;;
2023/08/28 02:42:18;;;;;;;1.8;1.3;;;;;;;14.64;100;932.5519;;;;
2023/08/28 02:44:46;;;;;;;1.6;1.2;;;;;;;14.82;100;932.6152;;;;
2023/08/28 02:47:11;;;;;;;2;1.3;;;;;;;14.89;100;932.6628;;;;
2023/08/28 02:49:41;;;;;;;1.5;1.2;;;;;;;14.91;100;932.7628;;;;
2023/08/28 02:52:07;;;;;;;2.3;1.1;;;;;;;14.9;100;932.7894;;;;
2023/08/28 02:54:31;;;;;;;1.5;1.3;;;;;;;14.82;100;932.8724;;;;
2023/08/28 02:56:59;;;;;;;1.2;1.1;;;;;;;14.75;100;932.7827;;;;
2023/08/28 02:59:24;;;;;;;1.3;1.2;;;;;;;14.82;100;932.7202;;;;
2023/08/28 03:01:51;;;;;;;2;1.3;;;;;;;14.88;100;932.6808;;;;
2023/08/28 03:04:16;;;;;;;1.5;1.2;;;;;;;14.93;100;932.7432;;;;
2023/08/28 03:06:42;;;;;;;1.3;1.2;;;;;;;14.89;100;932.7447;;;;
2023/08/28 03:09:08;;;;;;;1.7;1.1;;;;;;;14.99;100;932.7654;;;;
2023/08/28 03:11:34;;;;;;;1.8;1.3;;;;;;;14.89;100;932.7206;;;;
2023/08/28 03:13:59;;;;;;;1.2;1.1;;;;;;;14.86;100;932.6401;;;;
2023/08/28 03:16:26;;;;;;;3.1;1.3;;;;;;;14.76;100;932.5036;;;;
2023/08/28 03:18:51;;;;;;;2.8;1.5;;;;;;;14.72;100;932.36;;;;
2023/08/28 03:21:16;;;;;;;1.3;1.2;;;;;;;14.73;100;932.1908;;;;
2023/08/28 03:23:42;;;;;;;1.4;1.1;;;;;;;14.78;100;932.0441;;;;
2023/08/28 03:26:07;;;;;;;1.8;1.1;;;;;;;14.75;100;931.9236;;;;
2023/08/28 03:28:35;;;;;;;1.2;1.1;;;;;;;14.54;100;931.974;;;;
2023/08/28 03:31:00;;;;;;;1.4;1.2;;;;;;;14.6;100;932.0259;;;;
2023/08/28 03:33:27;;;;;;;2.1;1.3;;;;;;;14.62;100;931.9626;;;;
2023/08/28 03:35:52;;;;;;;1;0.9;;;;;;;14.47;100;932.0439;;;;
2023/08/28 03:38:17;;;;;;;1.2;1.1;;;;;;;14.59;100;931.9554;;;;
2023/08/28 03:40:43;;;;;;;2.3;1.2;;;;;;;14.51;100;931.8567;;;;
2023/08/28 03:43:08;;;;;;;1.8;1.1;;;;;;;14.53;100;931.7899;;;;
2023/08/28 03:45:34;;;;;;;2.3;1.2;;;;;;;14.51;100;931.803;;;;
2023/08/28 03:47:59;;;;;;;1.3;1.1;;;;;;;14.51;100;931.9152;;;;
2023/08/28 03:50:29;;;;;;;1.1;1;;;;;;;14.45;100;931.9642;;;;
2023/08/28 03:52:52;;;;;;;1.3;1.1;;;;;;;14.38;100;931.9422;;;;
2023/08/28 03:55:19;;;;;;;1.5;1;;;;;;;14.5;100;931.7511;;;;
2023/08/28 03:57:44;;;;;;;1.3;1.2;;;;;;;14.45;100;931.7255;;;;
2023/08/28 04:02:29;;;;;;;1;0.9;;;;;;;14.51;100;931.2999;;;;
2023/08/28 04:04:57;;;;;;;0.8;0.8;;;;;;;14.44;100;931.0648;;;;
2023/08/28 04:07:22;;;;;;;0.9;0.8;;;;;;;14.51;100;930.909;;;;
2023/08/28 04:09:50;;;;;;;1;0.8;;;;;;;14.44;100;930.915;;;;
2023/08/28 04:12:15;;;;;;;0.9;0.9;;;;;;;14.45;100;930.7738;;;;
2023/08/28 04:14:44;;;;;;;0.7;0.7;;;;;;;14.45;100;930.7762;;;;
2023/08/28 04:17:09;;;;;;;1;0.8;;;;;;;14.46;100;930.8586;;;;
2023/08/28 04:19:40;;;;;;;1.3;1;;;;;;;14.41;100;930.8636;;;;
2023/08/28 04:22:02;;;;;;;1.1;1;;;;;;;14.31;100;930.9526;;;;
2023/08/28 04:24:32;;;;;;;1.3;1.2;;;;;;;14.15;100;930.9814;;;;
2023/08/28 04:26:58;;;;;;;1.3;1.2;;;;;;;13.99;100;931.1381;;;;
2023/08/28 04:29:27;;;;;;;1.3;1.2;;;;;;;13.89;100;931.3973;;;;
2023/08/28 04:31:52;;;;;;;1.4;1.3;;;;;;;13.9;100;931.21;;;;
2023/08/28 04:34:17;;;;;;;1.4;1.1;;;;;;;13.83;100;931.0758;;;;
2023/08/28 04:36:42;;;;;;;1.3;1.2;;;;;;;13.89;100;931.0372;;;;
2023/08/28 04:39:10;;;;;;;1.2;1.1;;;;;;;13.78;100;931.0737;;;;
2023/08/28 04:41:35;;;;;;;2.6;1.2;;;;;;;13.98;100;931.1214;;;;
2023/08/28 04:44:01;;;;;;;2.1;1.3;;;;;;;14.13;100;931.1691;;;;
2023/08/28 04:46:26;;;;;;;1.3;1;;;;;;;14.18;100;931.149;;;;
2023/08/28 04:48:54;;;;;;;1.3;1.1;;;;;;;14.23;100;931.0293;;;;
2023/08/28 04:51:18;;;;;;;1.1;1;;;;;;;14.27;100;931.0222;;;;
2023/08/28 04:53:44;;;;;;;1.5;1;;;;;;;14.28;100;931.0132;;;;
2023/08/28 04:56:09;;;;;;;1.1;1;;;;;;;14.21;100;931.0092;;;;
2023/08/28 04:58:38;;;;;;;1;0.9;;;;;;;14.19;100;931.004;;;;
2023/08/28 05:01:03;;;;;;;1.9;0.9;;;;;;;14.22;100;930.8773;;;;
2023/08/28 05:03:32;;;;;;;1.8;0.9;;;;;;;14.3;100;930.7181;;;;
2023/08/28 05:05:57;;;;;;;0.9;0.9;;;;;;;14.28;100;930.6761;;;;
2023/08/28 05:08:22;;;;;;;1.1;1;;;;;;;14.29;100;930.7112;;;;
2023/08/28 05:10:51;;;;;;;1.7;1;;;;;;;14.29;100;930.8016;;;;
2023/08/28 05:13:17;;;;;;;1.1;0.9;;;;;;;14.26;100;930.7413;;;;
2023/08/28 05:15:41;;;;;;;1.1;1;;;;;;;14.18;100;930.7288;;;;
2023/08/28 05:18:11;;;;;;;1.5;0.7;;;;;;;14.16;100;930.7675;;;;
2023/08/28 05:20:33;;;;;;;0.9;0.9;;;;;;;14.23;100;930.7642;;;;
2023/08/28 05:23:00;;;;;;;1.2;0.9;;;;;;;14.24;100;930.5734;;;;
2023/08/28 05:25:25;;;;;;;1.1;0.8;;;;;;;14.23;100;930.4191;;;;
2023/08/28 05:27:55;;;;;;;1.4;0.9;;;;;;;14.27;100;930.2509;;;;
2023/08/28 05:30:20;;;;;;;1;0.8;;;;;;;14.22;100;930.1671;;;;
2023/08/28 05:32:46;;;;;;;0.6;0.6;;;;;;;14.28;100;930.1028;;;;
2023/08/28 05:35:11;;;;;;;1;0.7;;;;;;;14.26;100;930.0381;;;;
2023/08/28 05:37:39;;;;;;;0.8;0.8;;;;;;;14.23;100;930.0997;;;;
2023/08/28 05:40:04;;;;;;;0.8;0.8;;;;;;;14.24;100;930.1483;;;;
2023/08/28 05:42:32;;;;;;;1;0.9;;;;;;;14.31;100;930.0398;;;;
2023/08/28 05:44:56;;;;;;;1;0.6;;;;;;;14.09;100;930.053;;;;
2023/08/28 05:47:21;;;;;;;0.8;0.6;;;;;;;14.05;100;930.1785;;;;
2023/08/28 05:49:46;;;;;;;1.1;0.8;;;;;;;13.96;100;930.1516;;;;
2023/08/28 05:52:15;;;;;;;0.6;0.6;;;;;;;13.97;100;929.9225;;;;
2023/08/28 05:54:40;;;;;;;2.5;0.8;;;;;;;14.06;100;929.7358;;;;
2023/08/28 05:57:08;;;;;;;1.4;0.8;;;;;;;14.05;100;929.7231;;;;
2023/08/28 05:59:33;;;;;;;0.6;0.6;;;;;;;14.11;100;929.8044;;;;
2023/08/28 06:02:01;;;;;;;0.5;0.5;;;;;;;14.04;100;929.7769;;;;
2023/08/28 06:04:27;;;;;;;0.8;0.7;;;;;;;13.94;100;929.7903;;;;
2023/08/28 06:06:51;;;;;;;0.5;0.5;;;;;;;13.93;100;930.1122;;;;
2023/08/28 06:09:19;;;;;;;0.6;0.6;;;;;;;13.93;100;930.1722;;;;
2023/08/28 06:11:44;;;;;;;2.4;0.7;;;;;;;13.99;100;930.0342;;;;
2023/08/28 06:14:09;;;;;;;1.5;0.5;;;;;;;13.91;100;930.1492;;;;
2023/08/28 06:16:34;;;;;;;0.6;0.6;;;;;;;14.01;100;930.0956;;;;
2023/08/28 06:19:03;;;;;;;0.6;0.6;;;;;;;14.04;100;929.9594;;;;
2023/08/28 06:21:34;;;;;;;0.9;0.6;;;;;;;14.1;100;929.9031;;;;
2023/08/28 06:24:01;;;;;;;0.9;0.7;;;;;;;13.99;100;929.892;;;;
2023/08/28 06:26:26;;;;;;;0.6;0.6;;;;;;;13.93;100;929.9442;;;;
2023/08/28 06:28:51;;;;;;;0.7;0.7;;;;;;;13.98;100;930.0857;;;;
2023/08/28 06:31:17;;;;;;;0.6;0.6;;;;;;;13.97;100;930.1572;;;;
2023/08/28 06:33:42;;;;;;;1.6;0.6;;;;;;;13.85;100;930.0591;;;;
2023/08/28 06:36:07;;;;;;;0.6;0.6;;;;;;;13.92;100;929.9699;;;;
2023/08/28 06:38:35;;;;;;;1.4;0.9;;;;;;;14.03;100;929.9268;;;;
2023/08/28 06:41:00;;;;;;;0.9;0.5;;;;;;;13.93;100;929.7615;;;;
2023/08/28 06:43:27;;;;;;;0.6;0.5;;;;;;;14.02;100;929.7252;;;;
2023/08/28 06:45:52;;;;;;;0.7;0.5;;;;;;;14.05;100;929.6063;;;;
2023/08/28 06:48:19;;;;;;;0.9;0.6;;;;;;;13.92;100;929.6626;;;;
2023/08/28 06:50:44;;;;;;;0.5;0.5;;;;;;;13.92;100;929.7145;;;;
2023/08/28 06:53:10;;;;;;;0.8;0.6;;;;;;;14.02;100;929.7156;;;;
2023/08/28 06:55:35;;;;;;;0.7;0.6;;;;;;;13.98;100;929.6262;;;;
2023/08/28 06:58:05;;;;;;;0.8;0.5;;;;;;;13.84;100;929.5991;;;;
2023/08/28 07:00:36;;;;;;;0.8;0.8;;;;;;;13.99;100;929.6206;;;;
2023/08/28 07:03:06;;;;;;;1.2;0.6;;;;;;;14.04;100;929.6408;;;;
2023/08/28 07:05:31;;;;;;;0.6;0.6;;;;;;;14.04;100;929.5775;;;;
2023/08/28 07:07:58;;;;;;;1.1;0.7;;;;;;;14.18;100;929.6166;;;;
2023/08/28 07:10:23;;;;;;;0.9;0.6;;;;;;;14.26;100;929.689;;;;
2023/08/28 07:12:52;;;;;;;0.6;0.6;;;;;;;14.19;100;929.7269;;;;
2023/08/28 07:15:17;;;;;;;0.8;0.6;;;;;;;14.13;100;929.9289;;;;
2023/08/28 07:17:42;;;;;;;1.9;0.6;;;;;;;14.21;100;930.0333;;;;
2023/08/28 07:20:11;;;;;;;0.5;0.5;;;;;;;14.28;100;930.0491;;;;
2023/08/28 07:22:36;;;;;;;0.7;0.6;;;;;;;14.27;100;930.0051;;;;
2023/08/28 07:25:04;;;;;;;0.6;0.6;;;;;;;14.16;100;929.9933;;;;
2023/08/28 07:27:28;;;;;;;1;0.6;;;;;;;14.28;100;930.0388;;;;
2023/08/28 07:29:55;;;;;;;0.7;0.7;;;;;;;14.36;100;930.0829;;;;
2023/08/28 07:32:21;;;;;;;0.7;0.5;;;;;;;14.44;100;930.0636;;;;
2023/08/28 07:34:48;;;;;;;0.5;0.5;;;;;;;14.55;100;930.0311;;;;
2023/08/28 07:37:13;;;;;;;0.4;0.4;;;;;;;14.58;100;930.0673;;;;
2023/08/28 07:39:40;;;;;;;1;0.6;;;;;;;14.65;100;930.212;;;;
2023/08/28 07:42:06;;;;;;;0.7;0.7;;;;;;;14.5;100;930.3772;;;;
2023/08/28 07:44:33;;;;;;;0.8;0.6;;;;;;;14.51;100;930.5302;;;;
2023/08/28 07:46:58;;;;;;;0.5;0.5;;;;;;;14.55;100;930.6672;;;;
2023/08/28 07:49:24;;;;;;;1.1;0.7;;;;;;;14.67;100;930.6972;;;;
2023/08/28 07:51:49;;;;;;;1.1;0.7;;;;;;;14.66;100;930.7078;;;;
2023/08/28 07:54:17;;;;;;;1.2;0.6;;;;;;;14.67;100;930.6877;;;;
2023/08/28 07:56:43;;;;;;;0.5;0.5;;;;;;;14.69;100;930.6616;;;;
2023/08/28 07:59:08;;;;;;;0.4;0.4;;;;;;;14.56;100;930.7061;;;;
2023/08/28 08:01:35;;;;;;;0.5;0.4;;;;;;;14.47;100;930.6687;;;;
2023/08/28 08:04:03;;;;;;;0.4;0.4;;;;;;;14.42;100;930.7748;;;;
2023/08/28 08:06:28;;;;;;;0.5;0.5;;;;;;;14.38;100;930.7569;;;;
2023/08/28 08:08:53;;;;;;;0.4;0.4;;;;;;;14.53;100;930.5491;;;;
2023/08/28 08:11:18;;;;;;;0.5;0.5;;;;;;;14.62;100;930.2975;;;;
2023/08/28 08:13:45;;;;;;;0.5;0.5;;;;;;;14.35;100;930.0751;;;;
2023/08/28 08:16:10;;;;;;;0.8;0.4;;;;;;;14.23;100;929.9515;;;;
2023/08/28 08:18:36;;;;;;;0.5;0.5;;;;;;;14.31;100;929.882;;;;
2023/08/28 08:21:03;;;;;;;0.5;0.4;;;;;;;14.27;100;929.8762;;;;
2023/08/28 08:23:30;;;;;;;0.5;0.5;;;;;;;14.43;100;929.5981;;;;
2023/08/28 08:25:56;;;;;;;0.3;0.3;;;;;;;14.72;100;929.5119;;;;
2023/08/28 08:28:21;;;;;;;0.2;0.2;;;;;;;14.97;100;929.4941;;;;
2023/08/28 08:30:46;;;;;;;0.3;0.3;;;;;;;15.3;100;929.4072;;;;
2023/08/28 08:33:14;;;;;;;0.3;0.3;;;;;;;15.48;100;929.3937;;;;
2023/08/28 08:35:40;;;;;;;0.2;0.2;;;;;;;15.57;100;929.4124;;;;
2023/08/28 08:38:07;;;;;;;0.2;0.2;;;;;;;15.64;100;929.3278;;;;
2023/08/28 08:40:32;;;;;;;0.9;0.3;;;;;;;15.71;100;929.2137;;;;
2023/08/28 08:42:59;;;;;;;0.2;0.2;;;;;;;15.85;99.51465;929.2458;;;;
2023/08/28 08:45:24;;;;;;;0.6;0.4;;;;;;;16;98.87695;929.2863;;;;
2023/08/28 08:47:53;;;;;;;0.2;0.2;;;;;;;16.34;96.32715;929.2208;;;;
2023/08/28 08:50:18;;;;;;;0.2;0.2;;;;;;;16.2;94.94434;929.1831;;;;
2023/08/28 08:54:07;;;;;;;0.3;0.3;;;;;;;15.79;97.84961;929.2896;;;;
2023/08/28 08:56:35;;;;;;;0.3;0.3;;;;;;;14.86;99.72656;929.2874;;;;
2023/08/28 08:59:00;;;;;;;0.6;0.3;;;;;;;14.8;100;929.2433;;;;
2023/08/28 09:01:26;;;;;;;0.4;0.4;;;;;;;14.89;100;929.261;;;;
2023/08/28 09:03:51;;;;;;;0.3;0.3;;;;;;;14.88;100;929.1763;;;;
2023/08/28 09:06:19;;;;;;;0.3;0.3;;;;;;;14.67;100;929.2582;;;;
2023/08/28 09:08:45;;;;;;;0.4;0.4;;;;;;;14.82;100;929.2513;;;;
2023/08/28 09:11:12;;;;;;;0.5;0.5;;;;;;;14.96;100;929.2595;;;;
2023/08/28 09:13:37;;;;;;;0.5;0.5;;;;;;;15.06;100;929.1741;;;;
2023/08/28 09:16:05;;;;;;;0.4;0.4;;;;;;;15.01;100;929.1789;;;;
2023/08/28 09:18:30;;;;;;;0.5;0.5;;;;;;;14.91;100;929.1636;;;;
2023/08/28 09:20:58;;;;;;;0.5;0.5;;;;;;;15.06;100;929.0923;;;;
2023/08/28 09:24:07;;;;;;;0.4;0.4;;;;;;;15.14;100;929.0183;;;;
2023/08/28 09:26:32;;;;;;;0.4;0.4;;;;;;;14.98;100;928.968;;;;
2023/08/28 09:28:57;;;;;;;0.5;0.4;;;;;;;15.01;100;928.8254;;;;
2023/08/28 09:31:22;;;;;;;0.5;0.5;;;;;;;15.3;100;929.0045;;;;
2023/08/28 09:33:48;;;;;;;0.4;0.4;;;;;;;15.37;99.33594;929.0678;;;;
2023/08/28 09:36:13;;;;;;;0.4;0.4;;;;;;;15.33;99.88965;929.1636;;;;
2023/08/28 09:38:42;;;;;;;0.8;0.5;;;;;;;15.34;99.77832;929.156;;;;
2023/08/28 09:41:07;;;;;;;0.5;0.5;;;;;;;15.6;98.42871;929.14;;;;
2023/08/28 09:43:32;;;;;;;0.4;0.4;;;;;;;15.61;98.2002;929.1061;;;;
2023/08/28 09:45:57;;;;;;;0.6;0.5;;;;;;;15.7;97.45801;929.1306;;;;
2023/08/28 09:48:22;;;;;;;0.4;0.4;;;;;;;15.56;97.58887;929.2031;;;;
2023/08/28 09:50:48;;;;;;;0.4;0.4;;;;;;;15.58;98.41309;929.3198;;;;
2023/08/28 09:53:13;;;;;;;1;0.4;;;;;;;15.65;97.8291;929.3572;;;;
2023/08/28 09:55:38;;;;;;;0.4;0.4;;;;;;;15.67;97.19727;929.4033;;;;
2023/08/28 09:58:04;;;;;;;0.5;0.5;;;;;;;15.58;98.79395;929.3937;;;;
2023/08/28 10:00:29;;;;;;;0.4;0.4;;;;;;;15.73;98.03223;929.2075;;;;
2023/08/28 10:02:56;;;;;;;0.5;0.5;;;;;;;15.9;98.44043;928.9202;;;;
2023/08/28 10:05:26;;;;;;;0.5;0.4;;;;;;;16.04;96.2832;928.9813;;;;
2023/08/28 10:07:52;;;;;;;0.3;0.3;;;;;;;16.11;95.86133;928.9808;;;;
2023/08/28 10:10:16;;;;;;;0.9;0.5;;;;;;;15.97;96.57031;928.9465;;;;
2023/08/28 10:12:44;;;;;;;1;0.4;;;;;;;15.89;96.35547;928.8474;;;;
2023/08/28 10:15:11;;;;;;;0.4;0.3;;;;;;;15.79;97.06152;928.7158;;;;
2023/08/28 10:17:34;;;;;;;0.4;0.4;;;;;;;15.51;98.80273;928.7277;;;;
2023/08/28 10:20:03;;;;;;;0.5;0.5;;;;;;;15.51;98.8125;928.8074;;;;
2023/08/28 10:22:27;;;;;;;0.5;0.5;;;;;;;15.22;100;928.7787;;;;
2023/08/28 10:24:57;;;;;;;0.6;0.5;;;;;;;15.15;100;928.7567;;;;
2023/08/28 10:27:20;;;;;;;0.3;0.3;;;;;;;15.14;100;928.8195;;;;
2023/08/28 10:29:50;;;;;;;0.7;0.5;;;;;;;15.1;100;928.8123;;;;
2023/08/28 10:32:15;;;;;;;0.4;0.4;;;;;;;15.3;100;928.7392;;;;
2023/08/28 10:34:42;;;;;;;1.9;0.3;;;;;;;15.56;100;928.8566;;;;
2023/08/28 10:37:08;;;;;;;0.6;0.4;;;;;;;15.63;99.27832;928.7817;;;;
2023/08/28 10:39:35;;;;;;;0.4;0.4;;;;;;;15.63;99.39355;928.6451;;;;
2023/08/28 10:42:00;;;;;;;0.9;0.4;;;;;;;15.72;99.69141;928.5669;;;;
2023/08/28 10:44:25;;;;;;;0.4;0.4;;;;;;;15.76;98.88184;928.3889;;;;
2023/08/28 10:46:51;;;;;;;0.3;0.3;;;;;;;15.83;98.88379;928.3594;;;;
2023/08/28 10:49:18;;;;;;;0.4;0.4;;;;;;;15.8;99.09961;928.2008;;;;
2023/08/28 10:51:44;;;;;;;0.2;0.2;;;;;;;15.92;99.71582;928.1578;;;;
2023/08/28 10:54:08;;;;;;;0.3;0.3;;;;;;;15.55;100;928.2158;;;;
2023/08/28 10:56:33;;;;;;;0.2;0.2;;;;;;;15.66;100;928.2374;;;;
2023/08/28 10:58:59;;;;;;;0.3;0.3;;;;;;;16.02;98.58203;928.2509;;;;
2023/08/28 11:01:25;;;;;;;0.3;0.3;;;;;;;16.08;96.04102;928.2974;;;;
2023/08/28 11:03:50;;;;;;;0.3;0.3;;;;;;;15.96;96.44043;928.3237;;;;
2023/08/28 11:06:19;;;;;;;0.3;0.3;;;;;;;15.97;96.5;928.1965;;;;
2023/08/28 11:08:46;;;;;;;0.3;0.3;;;;;;;15.72;97.03418;928.2657;;;;
2023/08/28 11:11:11;;;;;;;0.3;0.3;;;;;;;15.69;96.58887;928.3772;;;;
2023/08/28 11:13:38;;;;;;;0.3;0.3;;;;;;;15.21;100;928.2863;;;;
2023/08/28 11:16:06;;;;;;;0.3;0.3;;;;;;;15.06;100;928.3155;;;;
2023/08/28 11:18:32;;;;;;;0.3;0.3;;;;;;;15.35;100;928.3986;;;;
2023/08/28 11:20:57;;;;;;;0.3;0.3;;;;;;;15.4;100;928.4423;;;;
2023/08/28 11:23:22;;;;;;;0.2;0.2;;;;;;;15.42;100;928.4659;;;;
2023/08/28 11:25:47;;;;;;;0.4;0.4;;;;;;;15.44;100;928.5836;;;;
2023/08/28 11:28:12;;;;;;;0.3;0.3;;;;;;;15.46;99.66895;928.7017;;;;
2023/08/28 11:30:37;;;;;;;0.3;0.3;;;;;;;15.18;100;928.6727;;;;
2023/08/28 11:33:03;;;;;;;2.4;0.3;;;;;;;15.19;100;928.6332;;;;
2023/08/28 11:35:28;;;;;;;0.3;0.3;;;;;;;15.15;100;928.5331;;;;
2023/08/28 11:37:56;;;;;;;0.2;0.2;;;;;;;15.27;100;928.2128;;;;
2023/08/28 11:40:21;;;;;;;0.8;0.3;;;;;;;15.17;100;928.1077;;;;
2023/08/28 11:42:48;;;;;;;0.4;0.3;;;;;;;14.97;100;928.0583;;;;
2023/08/28 11:45:13;;;;;;;0.3;0.3;;;;;;;15.24;100;928.0541;;;;
2023/08/28 11:47:43;;;;;;;0.3;0.3;;;;;;;15.34;100;928.1005;;;;
2023/08/28 11:50:11;;;;;;;0.2;0.2;;;;;;;15.3;100;928.0517;;;;
2023/08/28 11:52:36;;;;;;;0.6;0.3;;;;;;;15.24;100;928.1053;;;;
2023/08/28 11:55:04;;;;;;;0.2;0.2;;;;;;;15.36;100;928.0365;;;;
2023/08/28 11:57:30;;;;;;;0.4;0.4;;;;;;;15.22;100;928.1147;;;;
2023/08/28 11:59:57;;;;;;;0.2;0.2;;;;;;;15.2;100;928.1102;;;;
2023/08/28 12:02:22;;;;;;;0.2;0.2;;;;;;;15.15;100;928.0511;;;;
2023/08/28 12:04:48;;;;;;;0.2;0.2;;;;;;;15.14;100;927.9738;;;;
2023/08/28 12:07:12;;;;;;;0.2;0.2;;;;;;;15.18;100;927.9389;;;;
2023/08/28 12:09:41;;;;;;;0.2;0.2;;;;;;;15.21;100;927.9133;;;;
2023/08/28 12:12:06;;;;;;;0.2;0.2;;;;;;;15.34;100;927.9006;;;;
2023/08/28 12:14:37;;;;;;;0.3;0.3;;;;;;;15.05;100;927.8178;;;;
2023/08/28 12:17:02;;;;;;;0.3;0.3;;;;;;;15.04;100;927.8983;;;;
2023/08/28 12:19:27;;;;;;;0.2;0.2;;;;;;;15;100;928.1498;;;;
2023/08/28 12:21:53;;;;;;;0.3;0.3;;;;;;;15.14;100;928.178;;;;
2023/08/28 12:24:18;;;;;;;0.7;0.4;;;;;;;15.38;100;928.0641;;;;
2023/08/28 12:26:45;;;;;;;0.3;0.3;;;;;;;15.33;100;928.0558;;;;
2023/08/28 12:29:10;;;;;;;0.5;0.5;;;;;;;15.34;100;928.134;;;;
2023/08/28 12:31:36;;;;;;;0.3;0.3;;;;;;;15.11;100;928.1733;;;;
2023/08/28 12:34:05;;;;;;;0.3;0.3;;;;;;;15.21;100;928.2084;;;;
2023/08/28 12:36:30;;;;;;;0.5;0.2;;;;;;;15.01;100;928.2723;;;;
2023/08/28 12:38:58;;;;;;;1.1;0.4;;;;;;;14.8;100;928.2431;;;;
2023/08/28 12:41:23;;;;;;;0.3;0.3;;;;;;;14.45;100;928.1835;;;;
2023/08/28 12:43:49;;;;;;;0.3;0.3;;;;;;;14.66;100;928.0382;;;;
2023/08/28 12:46:16;;;;;;;0.3;0.3;;;;;;;14.72;100;927.9214;;;;
2023/08/28 12:48:39;;;;;;;0.2;0.2;;;;;;;14.93;100;927.7195;;;;
2023/08/28 12:51:06;;;;;;;0.3;0.3;;;;;;;14.94;100;927.5687;;;;
2023/08/28 12:53:31;;;;;;;0.9;0.5;;;;;;;15.07;100;927.7693;;;;
2023/08/28 12:55:58;;;;;;;0.2;0.2;;;;;;;14.95;100;927.8175;;;;
2023/08/28 12:58:24;;;;;;;0.3;0.3;;;;;;;14.93;100;927.8469;;;;
2023/08/28 13:00:49;;;;;;;0.3;0.3;;;;;;;15.15;100;927.7953;;;;
2023/08/28 13:03:15;;;;;;;0.5;0.3;;;;;;;15.3;100;927.7237;;;;
2023/08/28 13:05:41;;;;;;;1.2;0.3;;;;;;;15.29;100;927.8;;;;
2023/08/28 13:08:06;;;;;;;0.2;0.2;;;;;;;15.25;99.78125;927.8299;;;;
2023/08/28 13:10:35;;;;;;;0.2;0.2;;;;;;;15.41;99.56152;927.8709;;;;
2023/08/28 13:12:59;;;;;;;0.3;0.3;;;;;;;15.43;98.97949;927.9075;;;;
2023/08/28 13:15:28;;;;;;;0.3;0.3;;;;;;;15.56;99.14648;927.8024;;;;
2023/08/28 13:17:56;;;;;;;0.5;0.2;;;;;;;15.51;99.25195;927.7658;;;;
2023/08/28 13:20:22;;;;;;;0.6;0.4;;;;;;;15.47;99.91113;927.6819;;;;
2023/08/28 13:22:51;;;;;;;0.5;0.2;;;;;;;15.42;100;927.5948;;;;
2023/08/28 13:25:16;;;;;;;0.3;0.3;;;;;;;15.47;99.91309;927.5028;;;;
2023/08/28 13:27:45;;;;;;;0.3;0.3;;;;;;;15.53;99.07324;927.4306;;;;
2023/08/28 13:30:11;;;;;;;0.6;0.4;;;;;;;15.5;98.74121;927.4941;;;;
2023/08/28 13:32:39;;;;;;;0.3;0.3;;;;;;;15.35;99.91895;927.5291;;;;
2023/08/28 13:35:04;;;;;;;0.3;0.3;;;;;;;15.25;100;927.5108;;;;
2023/08/28 13:37:29;;;;;;;0.2;0.2;;;;;;;15.21;100;927.4641;;;;
2023/08/28 13:39:55;;;;;;;0.3;0.3;;;;;;;15.41;100;927.3544;;;;
2023/08/28 13:42:20;;;;;;;0.5;0.3;;;;;;;15.33;100;927.3621;;;;
2023/08/28 13:44:48;;;;;;;0.3;0.3;;;;;;;15.24;100;927.4189;;;;
2023/08/28 13:47:13;;;;;;;0.3;0.3;;;;;;;15.32;100;927.399;;;;
2023/08/28 13:49:39;;;;;;;0.3;0.3;;;;;;;15.47;100;927.2734;;;;
2023/08/28 13:52:04;;;;;;;0.4;0.4;;;;;;;15.39;100;927.3027;;;;
2023/08/28 13:54:29;;;;;;;0.4;0.3;;;;;;;15.42;100;927.428;;;;
2023/08/28 13:56:54;;;;;;;0.7;0.4;;;;;;;15.52;100;927.5233;;;;
2023/08/28 13:59:22;;;;;;;0.6;0.5;;;;;;;15.61;100;927.644;;;;
2023/08/28 14:01:47;;;;;;;0.3;0.3;;;;;;;15.74;99.44336;927.6575;;;;
2023/08/28 14:04:13;;;;;;;0.4;0.3;;;;;;;15.53;100;927.6729;;;;
2023/08/28 14:06:38;;;;;;;0.4;0.4;;;;;;;15.62;99.86719;927.6616;;;;
2023/08/28 14:09:04;;;;;;;0.2;0.2;;;;;;;15.5;100;927.5993;;;;
2023/08/28 14:11:28;;;;;;;0.2;0.2;;;;;;;15.39;100;927.5176;;;;
2023/08/28 14:13:55;;;;;;;0.7;0.2;;;;;;;15.08;100;927.6898;;;;
2023/08/28 14:16:21;;;;;;;0.6;0.3;;;;;;;14.91;100;927.7303;;;;
2023/08/28 14:18:50;;;;;;;0.2;0.2;;;;;;;15.06;100;927.7734;;;;
2023/08/28 14:21:15;;;;;;;0.3;0.3;;;;;;;15.06;100;927.6412;;;;
2023/08/28 14:23:40;;;;;;;0.6;0.3;;;;;;;15.2;100;927.5181;;;;
2023/08/28 14:26:06;;;;;;;0.3;0.3;;;;;;;15.27;100;927.4669;;;;
2023/08/28 14:28:32;;;;;;;0.3;0.3;;;;;;;15.31;100;927.4363;;;;
2023/08/28 14:30:57;;;;;;;0.4;0.2;;;;;;;15.27;100;927.3418;;;;
2023/08/28 14:33:24;;;;;;;0.3;0.3;;;;;;;15.33;100;927.3234;;;;
2023/08/28 14:35:49;;;;;;;0.4;0.4;;;;;;;15.38;100;927.2747;;;;
2023/08/28 14:38:16;;;;;;;1;0.3;;;;;;;15.38;100;927.3543;;;;
2023/08/28 14:40:41;;;;;;;0.2;0.2;;;;;;;15.44;100;927.3625;;;;
2023/08/28 14:43:07;;;;;;;0.2;0.2;;;;;;;15.45;100;927.2981;;;;
2023/08/28 14:45:32;;;;;;;0.6;0.4;;;;;;;15.48;100;927.3245;;;;
2023/08/28 14:47:59;;;;;;;0.4;0.3;;;;;;;15.51;100;927.2314;;;;
2023/08/28 14:50:24;;;;;;;0.2;0.2;;;;;;;15.63;100;927.2346;;;;
2023/08/28 14:52:52;;;;;;;0.8;0.6;;;;;;;15.6;100;927.2903;;;;
2023/08/28 14:55:17;;;;;;;0.3;0.3;;;;;;;15.58;100;927.2922;;;;
2023/08/28 14:57:45;;;;;;;0.2;0.2;;;;;;;15.32;100;927.2932;;;;
2023/08/28 15:00:12;;;;;;;0.3;0.3;;;;;;;15.3;100;927.2378;;;;
2023/08/28 15:02:40;;;;;;;0.4;0.3;;;;;;;15.24;100;927.403;;;;
2023/08/28 15:05:05;;;;;;;0.4;0.3;;;;;;;15.33;100;927.5038;;;;
2023/08/28 15:07:35;;;;;;;1;0.3;;;;;;;15.44;100;927.2993;;;;
2023/08/28 15:10:00;;;;;;;0.5;0.4;;;;;;;15.54;99.83496;927.3045;;;;
2023/08/28 15:13:17;;;;;;;0.4;0.4;;;;;;;15.54;100;927.2636;;;;
2023/08/28 15:15:43;;;;;;;0.6;0.4;;;;;;;15.45;100;927.2787;;;;
2023/08/28 15:18:08;;;;;;;0.4;0.4;;;;;;;15.56;100;927.2614;;;;